sensor_id;sensor_type;location;lat;lon;timestamp;temperature;humidity
33255;DHT22;19623;52.482;9.762;2022-09-02T00:01:45;12.80;99.90
33255;DHT22;19623;52.482;9.762;2022-09-02T00:04:22;12.80;99.90
33255;DHT22;19623;52.482;9.762;2022-09-02T00:06:49;12.80;99.90
33255;DHT22;19623;52.482;9.762;2022-09-02T00:09:18;12.70;99.90
33255;DHT22;19623;52.482;9.762;2022-09-02T00:11:46;12.70;99.90
33255;DHT22;19623;52.482;9.762;2022-09-02T00:14:18;12.70;99.90
33255;DHT22;19623;52.482;9.762;2022-09-02T00:16:45;12.70;99.90
33255;DHT22;19623;52.482;9.762;2022-09-02T00:19:18;12.60;99.90
33255;DHT22;19623;52.482;9.762;2022-09-02T00:21:45;12.60;99.90
33255;DHT22;19623;52.482;9.762;2022-09-02T00:24:10;12.50;99.90
33255;DHT22;19623;52.482;9.762;2022-09-02T00:26:36;12.50;99.90
33255;DHT22;19623;52.482;9.762;2022-09-02T00:29:03;12.50;99.90
33255;DHT22;19623;52.482;9.762;2022-09-02T00:31:29;12.40;99.90
33255;DHT22;19623;52.482;9.762;2022-09-02T00:33:55;12.40;99.90
33255;DHT22;19623;52.482;9.762;2022-09-02T00:36:20;12.30;99.90
33255;DHT22;19623;52.482;9.762;2022-09-02T00:38:47;12.30;99.90
33255;DHT22;19623;52.482;9.762;2022-09-02T00:41:13;12.20;99.90
33255;DHT22;19623;52.482;9.762;2022-09-02T00:43:54;12.10;99.90
33255;DHT22;19623;52.482;9.762;2022-09-02T00:46:23;12.10;99.90
33255;DHT22;19623;52.482;9.762;2022-09-02T00:48:59;12.10;99.90
33255;DHT22;19623;52.482;9.762;2022-09-02T00:51:27;12.10;99.90
33255;DHT22;19623;52.482;9.762;2022-09-02T00:53:56;12.10;99.90
33255;DHT22;19623;52.482;9.762;2022-09-02T00:56:25;12.10;99.90
33255;DHT22;19623;52.482;9.762;2022-09-02T00:58:52;12.10;99.90
33255;DHT22;19623;52.482;9.762;2022-09-02T01:01:18;12.00;99.90
33255;DHT22;19623;52.482;9.762;2022-09-02T01:03:45;12.00;99.90
33255;DHT22;19623;52.482;9.762;2022-09-02T01:06:11;12.00;99.90
33255;DHT22;19623;52.482;9.762;2022-09-02T01:08:43;12.00;99.90
33255;DHT22;19623;52.482;9.762;2022-09-02T01:11:10;12.00;99.90
33255;DHT22;19623;52.482;9.762;2022-09-02T01:13:40;12.00;99.90
33255;DHT22;19623;52.482;9.762;2022-09-02T01:16:12;12.00;99.90
33255;DHT22;19623;52.482;9.762;2022-09-02T01:18:40;12.00;99.90
33255;DHT22;19623;52.482;9.762;2022-09-02T01:21:08;12.00;99.90
33255;DHT22;19623;52.482;9.762;2022-09-02T01:23:35;11.90;99.90
33255;DHT22;19623;52.482;9.762;2022-09-02T01:26:03;11.90;99.90
33255;DHT22;19623;52.482;9.762;2022-09-02T01:28:30;11.80;99.90
33255;DHT22;19623;52.482;9.762;2022-09-02T01:30:58;11.80;99.90
33255;DHT22;19623;52.482;9.762;2022-09-02T01:33:24;11.70;99.90
33255;DHT22;19623;52.482;9.762;2022-09-02T01:35:51;11.70;99.90
33255;DHT22;19623;52.482;9.762;2022-09-02T01:38:17;11.60;99.90
33255;DHT22;19623;52.482;9.762;2022-09-02T01:40:43;11.60;99.90
33255;DHT22;19623;52.482;9.762;2022-09-02T01:43:16;11.60;99.90
33255;DHT22;19623;52.482;9.762;2022-09-02T01:45:44;11.60;99.90
33255;DHT22;19623;52.482;9.762;2022-09-02T01:48:11;11.60;99.90
33255;DHT22;19623;52.482;9.762;2022-09-02T01:50:39;11.50;99.90
33255;DHT22;19623;52.482;9.762;2022-09-02T01:53:05;11.50;99.90
33255;DHT22;19623;52.482;9.762;2022-09-02T01:55:32;11.50;99.90
33255;DHT22;19623;52.482;9.762;2022-09-02T01:57:58;11.50;99.90
33255;DHT22;19623;52.482;9.762;2022-09-02T02:00:24;11.50;99.90
33255;DHT22;19623;52.482;9.762;2022-09-02T02:02:50;11.50;99.90
33255;DHT22;19623;52.482;9.762;2022-09-02T02:05:16;11.50;99.90
33255;DHT22;19623;52.482;9.762;2022-09-02T02:07:43;11.40;99.90
33255;DHT22;19623;52.482;9.762;2022-09-02T02:10:10;11.30;99.90
33255;DHT22;19623;52.482;9.762;2022-09-02T02:12:38;11.30;99.90
33255;DHT22;19623;52.482;9.762;2022-09-02T02:15:07;11.30;99.90
33255;DHT22;19623;52.482;9.762;2022-09-02T02:17:33;11.30;99.90
33255;DHT22;19623;52.482;9.762;2022-09-02T02:19:59;11.30;99.90
33255;DHT22;19623;52.482;9.762;2022-09-02T02:22:26;11.30;99.90
33255;DHT22;19623;52.482;9.762;2022-09-02T02:24:52;11.30;99.90
33255;DHT22;19623;52.482;9.762;2022-09-02T02:27:19;11.30;99.90
33255;DHT22;19623;52.482;9.762;2022-09-02T02:29:44;11.30;99.90
33255;DHT22;19623;52.482;9.762;2022-09-02T02:32:10;11.20;99.90
33255;DHT22;19623;52.482;9.762;2022-09-02T02:34:36;11.10;99.90
33255;DHT22;19623;52.482;9.762;2022-09-02T02:37:02;11.10;99.90
33255;DHT22;19623;52.482;9.762;2022-09-02T02:39:27;11.10;99.90
33255;DHT22;19623;52.482;9.762;2022-09-02T02:41:53;11.10;99.90
33255;DHT22;19623;52.482;9.762;2022-09-02T02:44:19;11.10;99.90
33255;DHT22;19623;52.482;9.762;2022-09-02T02:46:45;11.00;99.90
33255;DHT22;19623;52.482;9.762;2022-09-02T02:49:11;11.00;99.90
33255;DHT22;19623;52.482;9.762;2022-09-02T02:51:37;11.00;99.90
33255;DHT22;19623;52.482;9.762;2022-09-02T02:54:03;11.00;99.90
33255;DHT22;19623;52.482;9.762;2022-09-02T02:56:30;10.90;99.90
33255;DHT22;19623;52.482;9.762;2022-09-02T02:58:56;10.90;99.90
33255;DHT22;19623;52.482;9.762;2022-09-02T03:01:24;11.00;99.90
33255;DHT22;19623;52.482;9.762;2022-09-02T03:03:50;11.00;99.90
33255;DHT22;19623;52.482;9.762;2022-09-02T03:06:18;10.90;99.90
33255;DHT22;19623;52.482;9.762;2022-09-02T03:08:44;11.00;99.90
33255;DHT22;19623;52.482;9.762;2022-09-02T03:11:14;11.00;99.90
33255;DHT22;19623;52.482;9.762;2022-09-02T03:13:40;10.90;99.90
33255;DHT22;19623;52.482;9.762;2022-09-02T03:16:06;10.90;99.90
33255;DHT22;19623;52.482;9.762;2022-09-02T03:18:32;10.90;99.90
33255;DHT22;19623;52.482;9.762;2022-09-02T03:20:58;10.90;99.90
33255;DHT22;19623;52.482;9.762;2022-09-02T03:23:24;10.80;99.90
33255;DHT22;19623;52.482;9.762;2022-09-02T03:25:50;10.80;99.90
33255;DHT22;19623;52.482;9.762;2022-09-02T03:28:16;10.80;99.90
33255;DHT22;19623;52.482;9.762;2022-09-02T03:30:44;10.70;99.90
33255;DHT22;19623;52.482;9.762;2022-09-02T03:33:10;10.70;99.90
33255;DHT22;19623;52.482;9.762;2022-09-02T03:35:43;10.70;99.90
33255;DHT22;19623;52.482;9.762;2022-09-02T03:38:10;10.60;99.90
33255;DHT22;19623;52.482;9.762;2022-09-02T03:40:37;10.60;99.90
33255;DHT22;19623;52.482;9.762;2022-09-02T03:43:03;10.50;99.90
33255;DHT22;19623;52.482;9.762;2022-09-02T03:45:29;10.50;99.90
33255;DHT22;19623;52.482;9.762;2022-09-02T03:47:55;10.50;99.90
33255;DHT22;19623;52.482;9.762;2022-09-02T03:50:24;10.50;99.90
33255;DHT22;19623;52.482;9.762;2022-09-02T03:52:50;10.50;99.90
33255;DHT22;19623;52.482;9.762;2022-09-02T03:55:17;10.50;99.90
33255;DHT22;19623;52.482;9.762;2022-09-02T03:57:43;10.50;99.90
33255;DHT22;19623;52.482;9.762;2022-09-02T04:00:13;10.40;99.90
33255;DHT22;19623;52.482;9.762;2022-09-02T04:02:39;10.40;99.90
33255;DHT22;19623;52.482;9.762;2022-09-02T04:05:05;10.40;99.90
33255;DHT22;19623;52.482;9.762;2022-09-02T04:07:31;10.40;99.90
33255;DHT22;19623;52.482;9.762;2022-09-02T04:09:57;10.40;99.90
33255;DHT22;19623;52.482;9.762;2022-09-02T04:12:23;10.40;99.90
33255;DHT22;19623;52.482;9.762;2022-09-02T04:14:49;10.30;99.90
33255;DHT22;19623;52.482;9.762;2022-09-02T04:17:14;10.30;99.90
33255;DHT22;19623;52.482;9.762;2022-09-02T04:19:40;10.30;99.90
33255;DHT22;19623;52.482;9.762;2022-09-02T04:22:06;10.30;99.90
33255;DHT22;19623;52.482;9.762;2022-09-02T04:24:32;10.30;99.90
33255;DHT22;19623;52.482;9.762;2022-09-02T04:26:59;10.30;99.90
33255;DHT22;19623;52.482;9.762;2022-09-02T04:29:24;10.30;99.90
33255;DHT22;19623;52.482;9.762;2022-09-02T04:31:51;10.30;99.90
33255;DHT22;19623;52.482;9.762;2022-09-02T04:34:17;10.30;99.90
33255;DHT22;19623;52.482;9.762;2022-09-02T04:36:43;10.30;99.90
33255;DHT22;19623;52.482;9.762;2022-09-02T04:39:08;10.20;99.90
33255;DHT22;19623;52.482;9.762;2022-09-02T04:41:35;10.20;99.90
33255;DHT22;19623;52.482;9.762;2022-09-02T04:44:01;10.20;99.90
33255;DHT22;19623;52.482;9.762;2022-09-02T04:46:29;10.20;99.90
33255;DHT22;19623;52.482;9.762;2022-09-02T04:48:55;10.20;99.90
33255;DHT22;19623;52.482;9.762;2022-09-02T04:51:22;10.20;99.90
33255;DHT22;19623;52.482;9.762;2022-09-02T04:53:50;10.20;99.90
33255;DHT22;19623;52.482;9.762;2022-09-02T04:56:20;10.20;99.90
33255;DHT22;19623;52.482;9.762;2022-09-02T04:58:47;10.20;99.90
33255;DHT22;19623;52.482;9.762;2022-09-02T05:01:17;10.20;99.90
33255;DHT22;19623;52.482;9.762;2022-09-02T05:03:46;10.30;99.90
33255;DHT22;19623;52.482;9.762;2022-09-02T05:06:15;10.20;99.90
33255;DHT22;19623;52.482;9.762;2022-09-02T05:08:41;10.20;99.90
33255;DHT22;19623;52.482;9.762;2022-09-02T05:11:12;10.20;99.90
33255;DHT22;19623;52.482;9.762;2022-09-02T05:13:39;10.30;99.90
33255;DHT22;19623;52.482;9.762;2022-09-02T05:16:06;10.20;99.90
33255;DHT22;19623;52.482;9.762;2022-09-02T05:18:31;10.30;99.90
33255;DHT22;19623;52.482;9.762;2022-09-02T05:20:57;10.30;99.90
33255;DHT22;19623;52.482;9.762;2022-09-02T05:23:23;10.30;99.90
33255;DHT22;19623;52.482;9.762;2022-09-02T05:25:49;10.30;99.90
33255;DHT22;19623;52.482;9.762;2022-09-02T05:28:15;10.40;99.90
33255;DHT22;19623;52.482;9.762;2022-09-02T05:30:42;10.40;99.90
33255;DHT22;19623;52.482;9.762;2022-09-02T05:33:08;10.50;99.90
33255;DHT22;19623;52.482;9.762;2022-09-02T05:35:41;10.50;99.90
33255;DHT22;19623;52.482;9.762;2022-09-02T05:38:08;10.60;99.90
33255;DHT22;19623;52.482;9.762;2022-09-02T05:40:37;10.60;99.90
33255;DHT22;19623;52.482;9.762;2022-09-02T05:43:04;10.70;99.90
33255;DHT22;19623;52.482;9.762;2022-09-02T05:45:29;10.70;99.90
33255;DHT22;19623;52.482;9.762;2022-09-02T05:47:56;10.80;99.90
33255;DHT22;19623;52.482;9.762;2022-09-02T05:50:22;10.80;99.90
33255;DHT22;19623;52.482;9.762;2022-09-02T05:52:51;10.90;99.90
33255;DHT22;19623;52.482;9.762;2022-09-02T05:55:17;10.90;99.90
33255;DHT22;19623;52.482;9.762;2022-09-02T05:57:42;11.00;99.90
33255;DHT22;19623;52.482;9.762;2022-09-02T06:00:10;11.00;99.90
33255;DHT22;19623;52.482;9.762;2022-09-02T06:02:36;11.10;99.90
33255;DHT22;19623;52.482;9.762;2022-09-02T06:05:02;11.20;99.90
33255;DHT22;19623;52.482;9.762;2022-09-02T06:07:28;11.30;99.90
33255;DHT22;19623;52.482;9.762;2022-09-02T06:09:54;11.40;99.90
33255;DHT22;19623;52.482;9.762;2022-09-02T06:12:20;11.50;99.90
33255;DHT22;19623;52.482;9.762;2022-09-02T06:14:47;11.60;99.90
33255;DHT22;19623;52.482;9.762;2022-09-02T06:17:13;11.70;99.90
33255;DHT22;19623;52.482;9.762;2022-09-02T06:19:39;11.80;99.90
33255;DHT22;19623;52.482;9.762;2022-09-02T06:22:05;11.90;99.90
33255;DHT22;19623;52.482;9.762;2022-09-02T06:24:32;12.00;99.90
33255;DHT22;19623;52.482;9.762;2022-09-02T06:26:58;12.20;99.90
33255;DHT22;19623;52.482;9.762;2022-09-02T06:29:25;12.30;99.90
33255;DHT22;19623;52.482;9.762;2022-09-02T06:31:51;12.40;99.90
33255;DHT22;19623;52.482;9.762;2022-09-02T06:34:19;12.40;99.90
33255;DHT22;19623;52.482;9.762;2022-09-02T06:36:47;12.50;99.90
33255;DHT22;19623;52.482;9.762;2022-09-02T06:39:15;12.60;99.90
33255;DHT22;19623;52.482;9.762;2022-09-02T06:41:42;12.70;99.90
33255;DHT22;19623;52.482;9.762;2022-09-02T06:44:10;12.80;99.90
33255;DHT22;19623;52.482;9.762;2022-09-02T06:46:42;12.80;99.90
33255;DHT22;19623;52.482;9.762;2022-09-02T06:49:09;12.90;99.90
33255;DHT22;19623;52.482;9.762;2022-09-02T06:51:40;13.00;99.90
33255;DHT22;19623;52.482;9.762;2022-09-02T06:54:13;13.10;99.90
33255;DHT22;19623;52.482;9.762;2022-09-02T06:56:39;13.20;99.90
33255;DHT22;19623;52.482;9.762;2022-09-02T06:59:05;13.20;99.90
33255;DHT22;19623;52.482;9.762;2022-09-02T07:01:31;13.30;99.90
33255;DHT22;19623;52.482;9.762;2022-09-02T07:03:59;13.40;99.90
33255;DHT22;19623;52.482;9.762;2022-09-02T07:06:57;13.50;99.90
33255;DHT22;19623;52.482;9.762;2022-09-02T07:09:25;13.50;99.90
33255;DHT22;19623;52.482;9.762;2022-09-02T07:12:01;13.70;99.90
33255;DHT22;19623;52.482;9.762;2022-09-02T07:14:27;13.80;99.90
33255;DHT22;19623;52.482;9.762;2022-09-02T07:16:54;13.90;99.90
33255;DHT22;19623;52.482;9.762;2022-09-02T07:19:22;14.10;99.90
33255;DHT22;19623;52.482;9.762;2022-09-02T07:21:48;14.10;99.90
33255;DHT22;19623;52.482;9.762;2022-09-02T07:24:15;14.20;99.90
33255;DHT22;19623;52.482;9.762;2022-09-02T07:26:41;14.30;99.90
33255;DHT22;19623;52.482;9.762;2022-09-02T07:29:08;14.40;99.90
33255;DHT22;19623;52.482;9.762;2022-09-02T07:31:35;14.50;99.90
33255;DHT22;19623;52.482;9.762;2022-09-02T07:34:03;14.70;99.90
33255;DHT22;19623;52.482;9.762;2022-09-02T07:36:30;14.70;99.90
33255;DHT22;19623;52.482;9.762;2022-09-02T07:38:56;14.80;99.90
33255;DHT22;19623;52.482;9.762;2022-09-02T07:41:23;14.90;99.90
33255;DHT22;19623;52.482;9.762;2022-09-02T07:43:49;14.90;99.90
33255;DHT22;19623;52.482;9.762;2022-09-02T07:46:15;15.00;99.90
33255;DHT22;19623;52.482;9.762;2022-09-02T07:48:41;15.10;99.90
33255;DHT22;19623;52.482;9.762;2022-09-02T07:51:08;15.20;99.90
33255;DHT22;19623;52.482;9.762;2022-09-02T07:53:35;15.30;99.90
33255;DHT22;19623;52.482;9.762;2022-09-02T07:56:01;15.40;99.90
33255;DHT22;19623;52.482;9.762;2022-09-02T07:58:28;15.50;99.90
33255;DHT22;19623;52.482;9.762;2022-09-02T08:00:54;15.60;99.90
33255;DHT22;19623;52.482;9.762;2022-09-02T08:03:26;15.70;99.90
33255;DHT22;19623;52.482;9.762;2022-09-02T08:05:53;15.90;99.90
33255;DHT22;19623;52.482;9.762;2022-09-02T08:08:19;16.00;99.90
33255;DHT22;19623;52.482;9.762;2022-09-02T08:10:47;16.10;99.90
33255;DHT22;19623;52.482;9.762;2022-09-02T08:13:14;16.20;99.90
33255;DHT22;19623;52.482;9.762;2022-09-02T08:15:40;16.40;99.90
33255;DHT22;19623;52.482;9.762;2022-09-02T08:18:06;16.60;99.90
33255;DHT22;19623;52.482;9.762;2022-09-02T08:20:32;16.70;99.90
33255;DHT22;19623;52.482;9.762;2022-09-02T08:22:58;16.80;99.90
33255;DHT22;19623;52.482;9.762;2022-09-02T08:25:24;17.00;99.90
33255;DHT22;19623;52.482;9.762;2022-09-02T08:27:50;17.20;99.90
33255;DHT22;19623;52.482;9.762;2022-09-02T08:30:17;17.20;99.90
33255;DHT22;19623;52.482;9.762;2022-09-02T08:32:43;17.20;99.90
33255;DHT22;19623;52.482;9.762;2022-09-02T08:35:09;17.30;99.90
33255;DHT22;19623;52.482;9.762;2022-09-02T08:37:35;17.40;99.90
33255;DHT22;19623;52.482;9.762;2022-09-02T08:40:03;17.50;99.90
33255;DHT22;19623;52.482;9.762;2022-09-02T08:42:34;17.50;99.90
33255;DHT22;19623;52.482;9.762;2022-09-02T08:48:01;17.80;99.90
33255;DHT22;19623;52.482;9.762;2022-09-02T08:50:30;17.90;99.90
33255;DHT22;19623;52.482;9.762;2022-09-02T08:53:16;18.20;99.90
33255;DHT22;19623;52.482;9.762;2022-09-02T08:55:52;18.30;99.90
33255;DHT22;19623;52.482;9.762;2022-09-02T08:58:27;18.40;99.90
33255;DHT22;19623;52.482;9.762;2022-09-02T09:01:07;18.50;99.90
33255;DHT22;19623;52.482;9.762;2022-09-02T09:06:54;18.80;99.90
33255;DHT22;19623;52.482;9.762;2022-09-02T09:15:02;19.00;99.90
33255;DHT22;19623;52.482;9.762;2022-09-02T09:17:51;19.00;99.90
33255;DHT22;19623;52.482;9.762;2022-09-02T09:20:25;19.10;99.90
33255;DHT22;19623;52.482;9.762;2022-09-02T09:22:56;19.20;99.90
33255;DHT22;19623;52.482;9.762;2022-09-02T09:25:22;19.30;99.90
33255;DHT22;19623;52.482;9.762;2022-09-02T09:27:57;19.40;99.90
33255;DHT22;19623;52.482;9.762;2022-09-02T09:30:23;19.60;99.90
33255;DHT22;19623;52.482;9.762;2022-09-02T09:32:57;19.60;99.90
33255;DHT22;19623;52.482;9.762;2022-09-02T09:35:26;19.70;99.90
33255;DHT22;19623;52.482;9.762;2022-09-02T09:37:55;19.70;99.90
33255;DHT22;19623;52.482;9.762;2022-09-02T09:45:38;20.10;99.90
33255;DHT22;19623;52.482;9.762;2022-09-02T09:48:25;20.10;99.90
33255;DHT22;19623;52.482;9.762;2022-09-02T09:53:24;20.20;99.90
33255;DHT22;19623;52.482;9.762;2022-09-02T09:58:23;20.60;99.90
33255;DHT22;19623;52.482;9.762;2022-09-02T10:00:51;20.60;99.90
33255;DHT22;19623;52.482;9.762;2022-09-02T10:03:24;20.50;99.90
33255;DHT22;19623;52.482;9.762;2022-09-02T10:05:58;20.60;99.90
33255;DHT22;19623;52.482;9.762;2022-09-02T10:08:51;20.80;99.90
33255;DHT22;19623;52.482;9.762;2022-09-02T10:11:28;20.90;99.90
33255;DHT22;19623;52.482;9.762;2022-09-02T10:14:05;21.10;99.90
33255;DHT22;19623;52.482;9.762;2022-09-02T10:16:52;21.20;99.90
33255;DHT22;19623;52.482;9.762;2022-09-02T10:25:31;21.20;99.90
33255;DHT22;19623;52.482;9.762;2022-09-02T10:31:23;21.10;99.90
33255;DHT22;19623;52.482;9.762;2022-09-02T10:41:44;21.30;99.90
33255;DHT22;19623;52.482;9.762;2022-09-02T10:44:27;21.40;99.90
33255;DHT22;19623;52.482;9.762;2022-09-02T10:47:09;21.50;99.90
33255;DHT22;19623;52.482;9.762;2022-09-02T10:57:57;22.00;99.90
33255;DHT22;19623;52.482;9.762;2022-09-02T11:00:25;22.00;99.90
33255;DHT22;19623;52.482;9.762;2022-09-02T11:03:14;22.00;99.90
33255;DHT22;19623;52.482;9.762;2022-09-02T11:05:49;22.10;99.90
33255;DHT22;19623;52.482;9.762;2022-09-02T11:08:29;22.30;99.90
33255;DHT22;19623;52.482;9.762;2022-09-02T11:11:24;22.30;99.90
33255;DHT22;19623;52.482;9.762;2022-09-02T11:16:47;22.50;99.90
33255;DHT22;19623;52.482;9.762;2022-09-02T11:22:00;22.60;99.90
33255;DHT22;19623;52.482;9.762;2022-09-02T11:27:13;22.70;99.90
33255;DHT22;19623;52.482;9.762;2022-09-02T11:30:07;22.90;99.90
33255;DHT22;19623;52.482;9.762;2022-09-02T11:35:23;23.10;99.90
33255;DHT22;19623;52.482;9.762;2022-09-02T11:43:35;22.90;99.90
33255;DHT22;19623;52.482;9.762;2022-09-02T11:52:00;23.00;99.90
33255;DHT22;19623;52.482;9.762;2022-09-02T11:54:38;22.90;99.90
33255;DHT22;19623;52.482;9.762;2022-09-02T11:57:06;22.90;99.90
33255;DHT22;19623;52.482;9.762;2022-09-02T12:02:41;22.90;99.90
33255;DHT22;19623;52.482;9.762;2022-09-02T12:13:38;23.40;99.90
33255;DHT22;19623;52.482;9.762;2022-09-02T12:21:27;23.70;99.90
33255;DHT22;19623;52.482;9.762;2022-09-02T12:26:24;23.50;99.90
33255;DHT22;19623;52.482;9.762;2022-09-02T12:28:51;23.30;99.90
33255;DHT22;19623;52.482;9.762;2022-09-02T12:37:00;23.20;99.90
33255;DHT22;19623;52.482;9.762;2022-09-02T12:45:05;23.30;99.90
33255;DHT22;19623;52.482;9.762;2022-09-02T12:50:07;23.70;99.90
33255;DHT22;19623;52.482;9.762;2022-09-02T12:57:47;23.80;99.90
33255;DHT22;19623;52.482;9.762;2022-09-02T13:00:34;23.80;99.90
33255;DHT22;19623;52.482;9.762;2022-09-02T13:03:08;23.80;99.90
33255;DHT22;19623;52.482;9.762;2022-09-02T13:06:07;24.10;99.90
33255;DHT22;19623;52.482;9.762;2022-09-02T13:26:08;23.30;99.90
33255;DHT22;19623;52.482;9.762;2022-09-02T13:31:21;23.00;99.90
33255;DHT22;19623;52.482;9.762;2022-09-02T13:34:03;22.90;99.90
33255;DHT22;19623;52.482;9.762;2022-09-02T13:36:31;23.00;99.90
33255;DHT22;19623;52.482;9.762;2022-09-02T13:39:19;23.00;99.90
33255;DHT22;19623;52.482;9.762;2022-09-02T13:41:46;23.10;99.90
33255;DHT22;19623;52.482;9.762;2022-09-02T13:44:24;23.20;99.90
33255;DHT22;19623;52.482;9.762;2022-09-02T13:47:17;23.30;99.90
33255;DHT22;19623;52.482;9.762;2022-09-02T13:49:48;23.50;99.90
33255;DHT22;19623;52.482;9.762;2022-09-02T13:52:18;23.50;99.90
33255;DHT22;19623;52.482;9.762;2022-09-02T13:54:53;23.70;99.90
33255;DHT22;19623;52.482;9.762;2022-09-02T13:57:25;23.90;99.90
33255;DHT22;19623;52.482;9.762;2022-09-02T13:59:53;24.10;99.90
33255;DHT22;19623;52.482;9.762;2022-09-02T14:05:03;24.00;99.90
33255;DHT22;19623;52.482;9.762;2022-09-02T14:07:40;24.00;99.90
33255;DHT22;19623;52.482;9.762;2022-09-02T14:10:11;23.90;99.90
33255;DHT22;19623;52.482;9.762;2022-09-02T14:12:39;23.80;99.90
33255;DHT22;19623;52.482;9.762;2022-09-02T14:15:10;23.60;99.90
33255;DHT22;19623;52.482;9.762;2022-09-02T14:17:37;23.30;99.90
33255;DHT22;19623;52.482;9.762;2022-09-02T14:20:19;23.20;99.90
33255;DHT22;19623;52.482;9.762;2022-09-02T14:22:55;23.10;99.90
33255;DHT22;19623;52.482;9.762;2022-09-02T14:25:23;23.00;99.90
33255;DHT22;19623;52.482;9.762;2022-09-02T14:27:57;22.90;99.90
33255;DHT22;19623;52.482;9.762;2022-09-02T14:30:52;23.00;99.90
33255;DHT22;19623;52.482;9.762;2022-09-02T14:43:52;23.10;99.90
33255;DHT22;19623;52.482;9.762;2022-09-02T14:46:30;22.90;99.90
33255;DHT22;19623;52.482;9.762;2022-09-02T14:49:06;22.90;99.90
33255;DHT22;19623;52.482;9.762;2022-09-02T14:51:46;22.90;99.90
33255;DHT22;19623;52.482;9.762;2022-09-02T14:54:36;22.90;99.90
33255;DHT22;19623;52.482;9.762;2022-09-02T14:57:05;22.90;99.90
33255;DHT22;19623;52.482;9.762;2022-09-02T14:59:31;22.90;99.90
33255;DHT22;19623;52.482;9.762;2022-09-02T15:01:57;22.90;99.90
33255;DHT22;19623;52.482;9.762;2022-09-02T15:04:24;22.90;99.90
33255;DHT22;19623;52.482;9.762;2022-09-02T15:06:49;23.00;99.90
33255;DHT22;19623;52.482;9.762;2022-09-02T15:09:16;23.10;99.90
33255;DHT22;19623;52.482;9.762;2022-09-02T15:11:50;23.20;99.90
33255;DHT22;19623;52.482;9.762;2022-09-02T15:14:17;23.20;99.90
33255;DHT22;19623;52.482;9.762;2022-09-02T15:16:43;23.20;99.90
33255;DHT22;19623;52.482;9.762;2022-09-02T15:19:09;23.20;99.90
33255;DHT22;19623;52.482;9.762;2022-09-02T15:21:35;23.30;99.90
33255;DHT22;19623;52.482;9.762;2022-09-02T15:24:01;23.20;99.90
33255;DHT22;19623;52.482;9.762;2022-09-02T15:26:27;23.20;99.90
33255;DHT22;19623;52.482;9.762;2022-09-02T15:28:53;23.00;99.90
33255;DHT22;19623;52.482;9.762;2022-09-02T15:31:18;22.80;99.90
33255;DHT22;19623;52.482;9.762;2022-09-02T15:33:51;22.80;99.90
33255;DHT22;19623;52.482;9.762;2022-09-02T15:36:17;22.80;99.90
33255;DHT22;19623;52.482;9.762;2022-09-02T15:38:43;22.90;99.90
33255;DHT22;19623;52.482;9.762;2022-09-02T15:41:18;23.00;99.90
33255;DHT22;19623;52.482;9.762;2022-09-02T15:43:45;23.20;99.90
33255;DHT22;19623;52.482;9.762;2022-09-02T15:48:46;23.50;99.90
33255;DHT22;19623;52.482;9.762;2022-09-02T15:51:14;23.50;99.90
33255;DHT22;19623;52.482;9.762;2022-09-02T15:53:40;23.30;99.90
33255;DHT22;19623;52.482;9.762;2022-09-02T15:56:16;23.20;99.90
33255;DHT22;19623;52.482;9.762;2022-09-02T15:58:42;23.00;99.90
33255;DHT22;19623;52.482;9.762;2022-09-02T16:01:09;22.90;99.90
33255;DHT22;19623;52.482;9.762;2022-09-02T16:03:34;22.90;99.90
33255;DHT22;19623;52.482;9.762;2022-09-02T16:06:02;23.00;99.90
33255;DHT22;19623;52.482;9.762;2022-09-02T16:08:27;23.10;99.90
33255;DHT22;19623;52.482;9.762;2022-09-02T16:10:53;23.10;99.90
33255;DHT22;19623;52.482;9.762;2022-09-02T16:13:19;23.10;99.90
33255;DHT22;19623;52.482;9.762;2022-09-02T16:15:46;22.90;99.90
33255;DHT22;19623;52.482;9.762;2022-09-02T16:18:12;22.80;99.90
33255;DHT22;19623;52.482;9.762;2022-09-02T16:20:38;22.70;99.90
33255;DHT22;19623;52.482;9.762;2022-09-02T16:23:04;22.60;99.90
33255;DHT22;19623;52.482;9.762;2022-09-02T16:25:29;22.50;99.90
33255;DHT22;19623;52.482;9.762;2022-09-02T16:27:55;22.40;99.90
33255;DHT22;19623;52.482;9.762;2022-09-02T16:30:22;22.40;99.90
33255;DHT22;19623;52.482;9.762;2022-09-02T16:32:48;22.30;99.90
33255;DHT22;19623;52.482;9.762;2022-09-02T16:35:16;22.20;99.90
33255;DHT22;19623;52.482;9.762;2022-09-02T16:37:41;22.20;99.90
33255;DHT22;19623;52.482;9.762;2022-09-02T16:40:07;22.10;99.90
33255;DHT22;19623;52.482;9.762;2022-09-02T16:42:33;22.10;99.90
33255;DHT22;19623;52.482;9.762;2022-09-02T16:44:59;22.00;99.90
33255;DHT22;19623;52.482;9.762;2022-09-02T16:47:24;22.10;99.90
33255;DHT22;19623;52.482;9.762;2022-09-02T16:49:51;22.10;99.90
33255;DHT22;19623;52.482;9.762;2022-09-02T16:52:17;22.10;99.90
33255;DHT22;19623;52.482;9.762;2022-09-02T16:54:42;22.00;99.90
33255;DHT22;19623;52.482;9.762;2022-09-02T16:57:08;22.00;99.90
33255;DHT22;19623;52.482;9.762;2022-09-02T16:59:34;22.00;99.90
33255;DHT22;19623;52.482;9.762;2022-09-02T17:02:00;21.90;99.90
33255;DHT22;19623;52.482;9.762;2022-09-02T17:04:25;22.00;99.90
33255;DHT22;19623;52.482;9.762;2022-09-02T17:06:51;21.90;99.90
33255;DHT22;19623;52.482;9.762;2022-09-02T17:09:17;21.80;99.90
33255;DHT22;19623;52.482;9.762;2022-09-02T17:11:43;21.70;99.90
33255;DHT22;19623;52.482;9.762;2022-09-02T17:14:11;21.70;99.90
33255;DHT22;19623;52.482;9.762;2022-09-02T17:16:42;21.40;99.90
33255;DHT22;19623;52.482;9.762;2022-09-02T17:19:09;21.40;99.90
33255;DHT22;19623;52.482;9.762;2022-09-02T17:21:46;21.40;99.90
33255;DHT22;19623;52.482;9.762;2022-09-02T17:24:13;21.20;99.90
33255;DHT22;19623;52.482;9.762;2022-09-02T17:26:41;21.20;99.90
33255;DHT22;19623;52.482;9.762;2022-09-02T17:29:12;21.10;99.90
33255;DHT22;19623;52.482;9.762;2022-09-02T17:31:38;21.00;99.90
33255;DHT22;19623;52.482;9.762;2022-09-02T17:34:07;20.90;99.90
33255;DHT22;19623;52.482;9.762;2022-09-02T17:36:35;20.80;99.90
33255;DHT22;19623;52.482;9.762;2022-09-02T17:39:13;20.70;99.90
33255;DHT22;19623;52.482;9.762;2022-09-02T17:41:39;20.80;99.90
33255;DHT22;19623;52.482;9.762;2022-09-02T17:44:33;20.70;99.90
33255;DHT22;19623;52.482;9.762;2022-09-02T17:47:11;20.60;99.90
33255;DHT22;19623;52.482;9.762;2022-09-02T17:49:39;20.40;99.90
33255;DHT22;19623;52.482;9.762;2022-09-02T17:52:21;20.30;99.90
33255;DHT22;19623;52.482;9.762;2022-09-02T17:54:51;20.20;99.90
33255;DHT22;19623;52.482;9.762;2022-09-02T17:57:40;20.20;99.90
33255;DHT22;19623;52.482;9.762;2022-09-02T18:00:15;20.10;99.90
33255;DHT22;19623;52.482;9.762;2022-09-02T18:08:42;19.80;99.90
33255;DHT22;19623;52.482;9.762;2022-09-02T18:11:09;19.70;99.90
33255;DHT22;19623;52.482;9.762;2022-09-02T18:19:03;19.40;99.90